Time;durP1;ratioP1;P1;durP2;ratioP2;P2;SDS_P1;SDS_P2;PMS_P1;PMS_P2;Temp;Humidity;BMP_temperature;BMP_pressure;BME280_temperature;BME280_humidity;BME280_pressure;Samples;Min_cycle;Max_cycle;Signal;HPM_P1;HPM_P2
2021/05/02 00:01:21;;;;;;;17.85;12.32;;;;;;;15.10;82.26;98940.44;3481925;28;20140;-53
2021/05/02 00:03:05;;;;;;;17.30;13.05;;;;;;;15.10;81.81;98945.66;3479562;28;20052;-45
2021/05/02 00:04:47;;;;;;;20.15;13.40;;;;;;;15.10;81.83;98936.94;3484082;28;20065;-46
2021/05/02 00:06:29;;;;;;;18.40;12.52;;;;;;;15.08;82.09;98928.25;3478979;28;20423;-47
2021/05/02 00:08:11;;;;;;;15.93;10.52;;;;;;;15.07;81.34;98932.63;3483025;28;20103;-46
2021/05/02 00:09:52;;;;;;;20.13;13.98;;;;;;;15.06;81.54;98927.44;3481606;28;20538;-45
2021/05/02 00:11:34;;;;;;;14.23;11.38;;;;;;;15.05;81.13;98918.75;3479606;28;20053;-52
2021/05/02 00:13:15;;;;;;;15.63;11.18;;;;;;;15.02;80.03;98919.63;3482205;28;20077;-50
2021/05/02 00:14:57;;;;;;;16.75;12.63;;;;;;;15.03;81.12;98918.75;3480567;28;20501;-46
2021/05/02 00:16:39;;;;;;;21.75;14.23;;;;;;;15.04;82.06;98910.03;3484287;28;20084;-46
2021/05/02 00:18:24;;;;;;;13.95;10.60;;;;;;;15.01;80.58;98910.09;3479273;28;20068;-46
2021/05/02 00:20:08;;;;;;;16.20;13.05;;;;;;;15.00;80.77;98904.91;3482448;28;20057;-46
2021/05/02 00:21:50;;;;;;;14.27;11.88;;;;;;;15.01;81.21;98904.00;3480174;28;20537;-47
2021/05/02 00:23:33;;;;;;;14.43;11.00;;;;;;;15.00;80.90;98904.91;3479040;28;20048;-46
2021/05/02 00:25:17;;;;;;;14.02;10.48;;;;;;;14.97;80.87;98900.56;3483815;28;20048;-46
2021/05/02 00:26:58;;;;;;;15.98;11.73;;;;;;;14.96;81.40;98900.59;3480521;28;20055;-46
2021/05/02 00:28:45;;;;;;;16.80;12.32;;;;;;;14.95;81.09;98904.97;3483665;28;20053;-46
2021/05/02 00:30:28;;;;;;;17.33;11.60;;;;;;;14.93;80.60;98895.44;3481164;28;20513;-46
2021/05/02 00:32:10;;;;;;;14.30;11.00;;;;;;;14.92;80.32;98899.78;3481763;28;20052;-47
2021/05/02 00:33:52;;;;;;;16.70;11.68;;;;;;;14.91;81.46;98898.06;3482320;28;20571;-47
2021/05/02 00:35:34;;;;;;;14.88;11.23;;;;;;;14.88;81.21;98892.88;3478863;28;20588;-47
2021/05/02 00:37:17;;;;;;;17.60;12.57;;;;;;;14.86;82.05;98894.66;3482402;28;20500;-47
2021/05/02 00:38:59;;;;;;;16.92;12.30;;;;;;;14.84;81.97;98897.31;3479141;28;20076;-46
2021/05/02 00:40:42;;;;;;;18.58;12.70;;;;;;;14.83;82.13;98900.78;3483526;28;20079;-53
2021/05/02 00:42:25;;;;;;;17.73;11.00;;;;;;;14.81;81.75;98897.34;3480556;28;20056;-50
2021/05/02 00:44:13;;;;;;;13.82;10.63;;;;;;;14.78;81.78;98888.69;3480375;28;20041;-51
2021/05/02 00:46:01;;;;;;;15.50;11.15;;;;;;;14.75;81.96;98886.16;3483552;28;20099;-50
2021/05/02 00:47:47;;;;;;;14.93;11.18;;;;;;;14.73;81.56;98886.19;3480128;28;20060;-50
2021/05/02 00:49:35;;;;;;;12.88;9.48;;;;;;;14.70;80.70;98883.63;3483830;28;20064;-47
2021/05/02 00:51:18;;;;;;;15.65;10.63;;;;;;;14.67;81.69;98875.81;3479760;28;20123;-46
2021/05/02 00:53:30;;;;;;;15.23;10.43;;;;;;;14.66;81.33;98879.34;3480812;28;20064;-46
2021/05/02 00:55:14;;;;;;;11.95;9.98;;;;;;;14.64;81.89;98873.25;3469857;28;20053;-48
2021/05/02 00:57:01;;;;;;;13.05;9.85;;;;;;;14.62;81.39;98873.31;3478301;28;20438;-47
2021/05/02 00:58:53;;;;;;;13.90;10.52;;;;;;;14.59;81.40;98875.09;3481603;28;20102;-46
2021/05/02 01:00:37;;;;;;;16.25;10.60;;;;;;;14.57;81.53;98874.22;3481292;28;20056;-47
2021/05/02 01:02:22;;;;;;;15.93;11.75;;;;;;;14.55;82.83;98879.47;3480015;28;20037;-46
2021/05/02 01:04:05;;;;;;;15.75;10.88;;;;;;;14.52;83.10;98876.94;3483343;28;20049;-46
2021/05/02 01:05:48;;;;;;;15.35;11.57;;;;;;;14.49;83.33;98869.13;3480304;28;20045;-46
2021/05/02 01:07:34;;;;;;;16.02;11.85;;;;;;;14.46;83.28;98869.19;3482774;28;20057;-47
2021/05/02 01:09:17;;;;;;;14.75;11.32;;;;;;;14.44;82.82;98871.81;3481573;28;20052;-46
2021/05/02 01:11:01;;;;;;;19.38;11.88;;;;;;;14.42;83.68;98870.97;3478426;28;20537;-46
2021/05/02 01:12:44;;;;;;;;;;;;;;;14.39;83.48;98873.63;3483635;28;20496;-46
2021/05/02 01:14:28;;;;;;;14.57;11.27;;;;;;;14.39;83.85;98872.78;3477526;28;19931;-47
2021/05/02 01:16:12;;;;;;;;;;;;;;;14.35;83.39;98871.94;3482623;28;20049;-46
2021/05/02 01:17:59;;;;;;;19.05;12.13;;;;;;;14.35;84.72;98876.31;3480147;28;20424;-46
2021/05/02 01:19:42;;;;;;;16.23;12.38;;;;;;;14.34;85.48;98874.56;3479115;28;20045;-50
2021/05/02 01:21:29;;;;;;;15.45;11.32;;;;;;;14.30;84.78;98873.72;3469291;28;20421;-49
2021/05/02 01:23:22;;;;;;;14.85;11.43;;;;;;;14.28;84.19;98871.13;3476721;28;20052;-52
2021/05/02 01:25:05;;;;;;;15.60;11.63;;;;;;;14.30;84.86;98862.44;3482034;28;20423;-53
2021/05/02 01:26:47;;;;;;;15.30;10.17;;;;;;;14.28;84.27;98867.69;3481006;28;20421;-52
2021/05/02 01:28:29;;;;;;;14.93;11.77;;;;;;;14.26;84.80;98866.84;3478440;28;20339;-51
2021/05/02 01:30:12;;;;;;;14.85;11.50;;;;;;;14.24;85.03;98876.44;3483246;28;20057;-46
2021/05/02 01:31:54;;;;;;;15.82;12.20;;;;;;;14.23;85.83;98867.72;3479625;28;20041;-46
2021/05/02 01:33:35;;;;;;;15.95;11.77;;;;;;;14.19;85.79;98868.66;3482950;28;20053;-47
2021/05/02 01:35:17;;;;;;;16.60;11.38;;;;;;;14.17;86.05;98867.81;3473892;28;20056;-47
2021/05/02 01:36:59;;;;;;;14.70;10.82;;;;;;;14.14;85.51;98870.47;3470291;28;20060;-48
2021/05/02 01:38:42;;;;;;;15.15;11.60;;;;;;;14.13;85.72;98871.38;3471870;28;20057;-46
2021/05/02 01:40:24;;;;;;;16.55;12.13;;;;;;;14.11;85.81;98859.22;3474378;28;20049;-46
2021/05/02 01:42:06;;;;;;;14.40;10.88;;;;;;;14.09;85.45;98860.13;3483044;28;20059;-46
2021/05/02 01:43:47;;;;;;;15.98;11.57;;;;;;;14.08;85.40;98854.94;3479834;28;20045;-50
2021/05/02 01:45:29;;;;;;;13.57;9.95;;;;;;;14.08;85.92;98858.38;3482835;28;20528;-51
2021/05/02 01:47:11;;;;;;;14.48;9.88;;;;;;;14.07;84.93;98851.44;3479589;28;20547;-51
2021/05/02 01:48:54;;;;;;;12.35;9.48;;;;;;;14.09;84.87;98856.63;3480420;28;20403;-49
2021/05/02 01:50:41;;;;;;;14.70;10.85;;;;;;;14.09;85.07;98852.31;3481469;28;20049;-49
2021/05/02 01:52:24;;;;;;;12.95;9.50;;;;;;;14.08;85.41;98847.09;3479311;28;20080;-50
2021/05/02 01:54:06;;;;;;;12.43;8.93;;;;;;;14.09;85.05;98849.69;3483026;28;20056;-49
2021/05/02 01:55:52;;;;;;;11.40;8.32;;;;;;;14.09;83.79;98851.41;3479708;28;20692;-51
2021/05/02 01:57:33;;;;;;;12.32;8.80;;;;;;;14.07;83.59;98846.22;3479510;28;20056;-51
2021/05/02 01:59:17;;;;;;;10.88;8.65;;;;;;;14.08;83.59;98849.72;3481297;28;20052;-50
2021/05/02 02:01:00;;;;;;;;;;;;;;;14.10;83.96;98847.94;3480007;28;20072;-53
2021/05/02 02:02:41;;;;;;;11.30;8.70;;;;;;;14.10;84.21;98842.72;3482850;28;19924;-52
2021/05/02 02:04:28;;;;;;;13.25;9.25;;;;;;;14.09;84.84;98839.25;3479136;28;20152;-50
2021/05/02 02:06:13;;;;;;;14.07;10.13;;;;;;;14.12;85.29;98840.09;3479397;28;20075;-54
2021/05/02 02:07:55;;;;;;;16.65;10.02;;;;;;;14.11;85.42;98833.13;3472419;28;20091;-50
2021/05/02 02:09:39;;;;;;;15.52;9.10;;;;;;;14.11;84.96;98838.34;3472133;28;20054;-53
2021/05/02 02:11:21;;;;;;;12.52;8.98;;;;;;;14.10;85.35;98829.69;3482692;28;20081;-51
2021/05/02 02:13:03;;;;;;;11.75;8.20;;;;;;;14.08;84.15;98840.13;3477753;28;20418;-53
2021/05/02 02:14:47;;;;;;;10.70;8.50;;;;;;;14.07;84.29;98833.19;3482628;28;20099;-51
2021/05/02 02:16:29;;;;;;;13.82;9.60;;;;;;;14.08;85.19;98832.31;3478644;28;20080;-53
2021/05/02 02:18:12;;;;;;;13.90;9.80;;;;;;;14.08;86.43;98834.06;3479013;28;20069;-52
2021/05/02 02:19:54;;;;;;;13.57;9.15;;;;;;;14.06;86.58;98831.47;3482033;28;20080;-51
2021/05/02 02:21:36;;;;;;;13.20;8.18;;;;;;;14.05;85.48;98834.09;3477576;28;20053;-50
2021/05/02 02:23:19;;;;;;;12.02;8.15;;;;;;;14.03;85.87;98826.28;3482434;28;20045;-51
2021/05/02 02:25:02;;;;;;;13.38;9.13;;;;;;;14.04;86.43;98830.63;3477714;28;20044;-51
2021/05/02 02:26:51;;;;;;;13.10;8.55;;;;;;;14.03;86.59;98831.50;3481161;28;20469;-51
2021/05/02 02:28:35;;;;;;;11.20;7.82;;;;;;;14.04;86.00;98832.34;3480245;28;20506;-54
2021/05/02 02:30:19;;;;;;;11.68;8.13;;;;;;;14.04;86.88;98834.97;3479132;28;20576;-53
2021/05/02 02:32:03;;;;;;;;;;;;;;;14.03;86.37;98831.50;3482235;28;20053;-52
2021/05/02 02:33:45;;;;;;;10.32;7.32;;;;;;;14.02;86.10;98823.69;3479259;28;19931;-51
2021/05/02 02:35:27;;;;;;;10.40;7.97;;;;;;;14.02;86.00;98824.59;3482541;28;20053;-50
2021/05/02 02:37:11;;;;;;;9.73;7.28;;;;;;;14.01;85.26;98819.38;3478403;28;20072;-52
2021/05/02 02:38:54;;;;;;;10.55;6.80;;;;;;;14.01;84.75;98824.59;3479205;28;20077;-51
2021/05/02 02:40:38;;;;;;;9.45;6.72;;;;;;;14.00;84.54;98821.09;3480063;28;20048;-51
2021/05/02 02:42:24;;;;;;;9.13;6.95;;;;;;;14.01;84.67;98814.16;3477729;28;20487;-51
2021/05/02 02:44:08;;;;;;;11.93;7.40;;;;;;;14.01;84.89;98812.41;3482120;28;20052;-53
2021/05/02 02:45:53;;;;;;;8.70;6.43;;;;;;;14.01;84.55;98807.19;3478944;28;20064;-53
2021/05/02 02:47:37;;;;;;;8.93;6.43;;;;;;;14.00;83.57;98805.47;3481321;28;20057;-50
2021/05/02 02:49:21;;;;;;;9.43;7.10;;;;;;;14.01;84.63;98807.19;3480345;28;20048;-51
2021/05/02 02:51:04;;;;;;;12.07;7.82;;;;;;;14.01;85.92;98806.34;3477772;28;20064;-53
2021/05/02 02:52:49;;;;;;;10.98;7.82;;;;;;;14.01;86.15;98808.94;3481319;28;20053;-53
2021/05/02 02:54:31;;;;;;;11.82;8.52;;;;;;;14.00;86.39;98813.28;3477456;28;20106;-50
2021/05/02 02:56:17;;;;;;;11.80;8.20;;;;;;;14.00;86.96;98813.28;3482312;28;20083;-51
2021/05/02 02:58:00;;;;;;;10.63;8.07;;;;;;;13.99;87.05;98815.91;3478236;28;20056;-52
2021/05/02 02:59:42;;;;;;;11.10;7.45;;;;;;;13.96;86.56;98814.22;3480767;28;20140;-47
2021/05/02 03:01:25;;;;;;;12.32;8.23;;;;;;;13.97;86.79;98815.06;3482496;28;20086;-47
2021/05/02 03:03:09;;;;;;;10.05;7.90;;;;;;;13.95;87.29;98815.09;3479835;28;20049;-47
2021/05/02 03:04:53;;;;;;;12.18;7.20;;;;;;;13.93;87.01;98829.91;3484535;28;20099;-46
2021/05/02 03:06:35;;;;;;;9.50;6.85;;;;;;;13.93;87.12;98826.44;3479583;28;20521;-47
2021/05/02 03:08:21;;;;;;;9.98;7.03;;;;;;;13.94;87.59;98829.03;3484093;28;20088;-48
2021/05/02 03:10:03;;;;;;;8.95;6.38;;;;;;;13.94;87.16;98833.38;3482999;28;20106;-47
2021/05/02 03:11:45;;;;;;;12.73;6.97;;;;;;;13.97;88.16;98825.50;3481544;28;20049;-48
2021/05/02 03:13:27;;;;;;;11.02;8.38;;;;;;;14.00;88.71;98821.09;3483096;28;20083;-46
2021/05/02 03:15:10;;;;;;;12.68;6.88;;;;;;;14.03;88.55;98822.81;3479624;28;20049;-46
2021/05/02 03:16:52;;;;;;;9.03;6.47;;;;;;;14.06;88.04;98828.00;3484118;28;20060;-47
2021/05/02 03:18:48;;;;;;;9.95;7.18;;;;;;;14.08;87.95;98826.22;3481396;28;20829;-46
2021/05/02 03:20:33;;;;;;;10.32;6.45;;;;;;;14.12;88.09;98822.69;3479786;28;20492;-46
2021/05/02 03:22:23;;;;;;;11.35;6.82;;;;;;;14.14;88.00;98818.31;3484313;28;20051;-48
2021/05/02 03:24:08;;;;;;;9.80;7.18;;;;;;;14.18;88.53;98827.84;3480860;28;20068;-47
2021/05/02 03:25:53;;;;;;;9.80;6.72;;;;;;;14.21;88.17;98824.31;3483988;28;20668;-47
2021/05/02 03:27:40;;;;;;;9.23;6.88;;;;;;;14.23;88.28;98823.38;3482055;28;20045;-46
2021/05/02 03:29:22;;;;;;;12.60;7.65;;;;;;;14.25;88.55;98818.16;3480033;28;20049;-48
2021/05/02 03:31:05;;;;;;;11.50;7.07;;;;;;;14.26;88.10;98819.88;3483376;28;20061;-46
2021/05/02 03:32:49;;;;;;;12.43;7.40;;;;;;;14.26;87.22;98820.75;3480236;28;20049;-46
2021/05/02 03:34:30;;;;;;;;;;;;;;;14.27;88.12;98817.25;3484921;28;20581;-46
2021/05/02 03:36:15;;;;;;;16.30;7.88;;;;;;;14.29;88.55;98817.25;3480924;28;19924;-48
2021/05/02 03:38:06;;;;;;;10.65;6.82;;;;;;;14.30;88.02;98818.09;3482292;28;20460;-47
2021/05/02 03:39:49;;;;;;;11.07;6.70;;;;;;;14.31;88.15;98822.44;3481912;28;20087;-46
2021/05/02 03:41:33;;;;;;;9.38;6.18;;;;;;;14.33;87.76;98823.31;3478394;28;20216;-47
2021/05/02 03:43:15;;;;;;;;;;;;;;;14.35;87.98;98824.13;3484866;28;20525;-46
2021/05/02 03:44:56;;;;;;;9.07;6.82;;;;;;;14.36;87.37;98826.72;3479192;28;19924;-47
2021/05/02 03:46:38;;;;;;;8.32;6.18;;;;;;;14.38;87.50;98830.16;3482309;28;20559;-46
2021/05/02 03:48:19;;;;;;;7.95;5.43;;;;;;;14.39;86.27;98825.81;3481470;28;20056;-46
2021/05/02 03:50:01;;;;;;;8.50;6.40;;;;;;;14.41;86.89;98837.06;3482123;28;20119;-46
2021/05/02 03:51:42;;;;;;;8.30;5.60;;;;;;;14.43;86.31;98835.31;3482719;28;20053;-46
2021/05/02 03:53:23;;;;;;;9.57;7.03;;;;;;;14.45;86.54;98841.38;3479474;28;20048;-47
2021/05/02 03:55:06;;;;;;;11.85;7.60;;;;;;;14.46;87.53;98830.91;3483925;28;20045;-45
2021/05/02 03:56:47;;;;;;;9.68;7.20;;;;;;;14.48;87.48;98832.63;3481022;28;20045;-46
2021/05/02 03:58:29;;;;;;;10.18;7.38;;;;;;;14.45;87.53;98825.72;3483814;28;20053;-54
2021/05/02 04:00:12;;;;;;;9.50;6.78;;;;;;;14.44;87.50;98830.06;3481384;28;20060;-53
2021/05/02 04:01:55;;;;;;;10.60;6.93;;;;;;;14.44;87.76;98835.28;3480594;28;20511;-51
2021/05/02 04:03:36;;;;;;;13.38;7.40;;;;;;;14.45;87.85;98831.78;3482610;28;20044;-51
2021/05/02 04:05:18;;;;;;;9.57;6.78;;;;;;;14.47;87.93;98829.16;3480552;28;20053;-51
2021/05/02 04:07:00;;;;;;;10.98;7.30;;;;;;;14.49;87.90;98827.38;3484084;28;20088;-51
2021/05/02 04:08:41;;;;;;;9.93;7.13;;;;;;;14.51;87.74;98819.53;3479138;28;20644;-51
2021/05/02 04:10:23;;;;;;;11.52;6.60;;;;;;;14.53;87.72;98816.00;3483454;28;20110;-54
2021/05/02 04:12:06;;;;;;;9.13;6.13;;;;;;;14.55;87.37;98814.22;3481418;28;20144;-54
2021/05/02 04:13:48;;;;;;;8.32;5.88;;;;;;;14.58;87.19;98814.19;3479262;28;20056;-51
2021/05/02 04:15:29;;;;;;;10.15;6.88;;;;;;;14.62;87.56;98807.16;3483591;28;20080;-52
2021/05/02 04:17:12;;;;;;;11.90;6.65;;;;;;;14.67;87.53;98807.94;3478679;28;20048;-53
2021/05/02 04:18:55;;;;;;;9.10;6.25;;;;;;;14.70;87.03;98805.28;3484112;28;20053;-51
2021/05/02 04:20:36;;;;;;;9.00;6.20;;;;;;;14.72;87.26;98800.91;3480346;28;20045;-55
2021/05/02 04:22:18;;;;;;;11.32;6.57;;;;;;;14.76;87.03;98810.41;3481394;28;20538;-52
2021/05/02 04:23:59;;;;;;;9.25;6.22;;;;;;;14.80;87.04;98819.91;3481894;28;20045;-53
2021/05/02 04:25:41;;;;;;;10.88;6.32;;;;;;;14.82;86.53;98810.31;3480424;28;20076;-52
2021/05/02 04:27:22;;;;;;;10.38;6.95;;;;;;;14.86;86.60;98807.66;3476282;28;20095;-52
2021/05/02 04:29:04;;;;;;;8.60;5.40;;;;;;;14.90;86.04;98811.91;3478104;28;20431;-51
2021/05/02 04:30:45;;;;;;;7.75;5.60;;;;;;;14.93;85.81;98811.88;3470227;28;20084;-50
2021/05/02 04:32:27;;;;;;;13.45;7.18;;;;;;;14.95;86.30;98800.50;3479003;28;20430;-51
2021/05/02 04:34:08;;;;;;;9.50;5.35;;;;;;;14.97;85.41;98796.09;3481275;28;20103;-53
2021/05/02 04:35:49;;;;;;;8.57;5.63;;;;;;;14.99;85.30;98794.34;3481333;28;20057;-52
2021/05/02 04:37:31;;;;;;;7.35;5.63;;;;;;;15.04;85.82;98796.84;3479774;28;20474;-52
2021/05/02 04:39:13;;;;;;;7.90;5.97;;;;;;;15.07;85.75;98794.19;3483188;28;20458;-52
2021/05/02 04:40:54;;;;;;;8.25;5.90;;;;;;;15.11;85.78;98795.00;3480148;28;20048;-53
2021/05/02 04:42:36;;;;;;;8.73;6.05;;;;;;;15.13;85.80;98796.66;3483507;28;20053;-53
2021/05/02 04:44:18;;;;;;;9.45;6.30;;;;;;;15.15;85.19;98802.75;3480101;28;20041;-52
2021/05/02 04:46:00;;;;;;;9.60;6.25;;;;;;;15.18;85.51;98797.44;3482866;28;20053;-52
2021/05/02 04:47:41;;;;;;;8.52;6.03;;;;;;;15.20;85.08;98800.88;3480024;28;20495;-54
2021/05/02 04:49:23;;;;;;;7.18;6.10;;;;;;;15.23;85.06;98813.06;3480066;28;20053;-52
2021/05/02 04:51:04;;;;;;;9.70;6.38;;;;;;;15.25;85.74;98808.66;3483286;28;20099;-52
2021/05/02 04:52:46;;;;;;;8.82;5.80;;;;;;;15.27;85.05;98813.84;3480420;28;20061;-51
2021/05/02 04:54:27;;;;;;;8.45;6.30;;;;;;;15.30;85.53;98811.19;3483427;28;20057;-52
2021/05/02 04:56:09;;;;;;;9.70;5.50;;;;;;;15.33;84.96;98804.16;3478604;28;20048;-52
2021/05/02 04:57:50;;;;;;;8.27;5.82;;;;;;;15.37;84.70;98797.97;3483079;28;20134;-51
2021/05/02 04:59:32;;;;;;;8.57;6.00;;;;;;;15.40;84.76;98803.13;3480924;28;20073;-54
2021/05/02 05:01:14;;;;;;;11.07;5.82;;;;;;;15.42;84.77;98800.50;3479800;28;20045;-50
2021/05/02 05:02:55;;;;;;;8.85;6.10;;;;;;;15.44;84.80;98800.47;3470202;28;20132;-53
2021/05/02 05:04:37;;;;;;;10.13;6.47;;;;;;;15.46;84.71;98802.16;3474312;28;20506;-52
2021/05/02 05:06:18;;;;;;;11.73;6.25;;;;;;;15.50;84.72;98800.31;3483515;28;20076;-53
2021/05/02 05:08:00;;;;;;;7.70;5.97;;;;;;;15.54;84.55;98802.84;3479131;28;20063;-47
2021/05/02 05:09:41;;;;;;;6.82;5.75;;;;;;;15.59;84.50;98794.94;3483099;28;20502;-52
2021/05/02 05:11:22;;;;;;;9.90;6.93;;;;;;;15.63;83.97;98803.56;3480534;28;20084;-53
2021/05/02 05:13:04;;;;;;;9.07;5.80;;;;;;;15.65;83.60;98799.16;3478137;28;20430;-54
2021/05/02 05:14:46;;;;;;;10.25;5.53;;;;;;;15.69;84.13;98800.84;3482478;28;20055;-52
2021/05/02 05:16:28;;;;;;;8.20;5.75;;;;;;;15.70;83.72;98798.19;3479858;28;20045;-45
2021/05/02 05:18:10;;;;;;;10.25;6.80;;;;;;;15.70;83.43;98802.56;3483324;28;20080;-44
2021/05/02 05:19:52;;;;;;;8.15;6.28;;;;;;;15.67;83.65;98800.88;3480378;28;20053;-46
2021/05/02 05:21:33;;;;;;;8.65;5.95;;;;;;;15.70;83.80;98810.41;3482505;28;20564;-45
2021/05/02 05:23:15;;;;;;;10.20;5.97;;;;;;;15.68;83.68;98804.34;3479815;28;20049;-45
2021/05/02 05:24:57;;;;;;;9.32;5.88;;;;;;;15.68;83.26;98805.22;3479519;28;20056;-47
2021/05/02 05:26:39;;;;;;;8.60;6.15;;;;;;;15.66;83.52;98800.91;3483125;28;20053;-53
2021/05/02 05:28:23;;;;;;;9.23;6.43;;;;;;;15.70;84.11;98800.81;3479786;28;20045;-47
2021/05/02 05:30:09;;;;;;;9.05;6.38;;;;;;;15.73;84.00;98797.25;3482986;28;20049;-45
2021/05/02 05:31:50;;;;;;;7.90;6.43;;;;;;;15.77;83.67;98801.53;3479814;28;20049;-45
2021/05/02 05:33:32;;;;;;;12.13;6.55;;;;;;;15.81;84.11;98804.94;3481808;28;20053;-45
2021/05/02 05:35:13;;;;;;;9.52;6.20;;;;;;;15.84;83.38;98797.91;3481156;28;20517;-45
2021/05/02 05:36:55;;;;;;;9.25;5.82;;;;;;;15.87;83.08;98802.19;3478959;28;20418;-45
2021/05/02 05:38:36;;;;;;;10.15;6.10;;;;;;;15.90;83.22;98805.59;3481698;28;20421;-46
2021/05/02 05:40:17;;;;;;;7.85;6.10;;;;;;;15.95;82.76;98802.91;3479650;28;20045;-47
2021/05/02 05:41:59;;;;;;;8.27;6.07;;;;;;;16.00;82.67;98797.56;3482893;28;20110;-45
2021/05/02 05:43:40;;;;;;;9.23;6.05;;;;;;;16.04;82.63;98799.22;3479565;28;20052;-45
2021/05/02 05:45:23;;;;;;;10.48;6.95;;;;;;;16.06;82.92;98798.28;3481837;28;20057;-45
2021/05/02 05:47:04;;;;;;;9.38;6.35;;;;;;;16.09;82.61;98803.44;3479701;28;20150;-46
2021/05/02 05:48:47;;;;;;;9.25;6.28;;;;;;;16.12;83.00;98807.75;3480722;28;20057;-45
2021/05/02 05:50:29;;;;;;;10.88;6.03;;;;;;;16.15;82.66;98791.97;3481702;28;20049;-45
2021/05/02 05:52:12;;;;;;;8.50;6.55;;;;;;;16.21;82.67;98799.66;3479207;28;20075;-45
2021/05/02 05:53:53;;;;;;;10.77;6.38;;;;;;;16.27;82.58;98788.22;3482952;28;20084;-44
2021/05/02 05:55:34;;;;;;;9.95;6.18;;;;;;;16.36;82.91;98786.22;3479510;28;20395;-45
2021/05/02 05:57:16;;;;;;;8.32;6.47;;;;;;;16.45;81.88;98782.53;3479990;28;20045;-46
2021/05/02 05:58:57;;;;;;;12.02;6.28;;;;;;;16.52;81.11;98794.56;3480898;28;20084;-45
2021/05/02 06:00:39;;;;;;;8.68;5.75;;;;;;;16.59;81.01;98781.34;3478723;28;20075;-45
2021/05/02 06:02:20;;;;;;;8.05;5.65;;;;;;;16.64;80.30;98779.47;3481733;28;20053;-46
2021/05/02 06:04:03;;;;;;;9.77;6.50;;;;;;;16.64;80.12;98776.84;3479373;28;20049;-44
2021/05/02 06:05:45;;;;;;;13.63;6.17;;;;;;;16.68;80.04;98781.09;3482669;28;20091;-45
2021/05/02 06:07:26;;;;;;;10.88;6.97;;;;;;;16.66;79.81;98773.28;3479287;28;20049;-47
2021/05/02 06:09:08;;;;;;;10.00;6.40;;;;;;;16.62;80.03;98782.13;3481372;28;20110;-45
2021/05/02 06:10:50;;;;;;;10.25;6.68;;;;;;;16.61;80.41;98780.38;3480961;28;20075;-45
2021/05/02 06:12:31;;;;;;;11.63;6.97;;;;;;;16.61;79.72;98780.38;3480481;28;20102;-45
2021/05/02 06:14:12;;;;;;;9.57;6.05;;;;;;;16.63;79.93;98775.97;3477476;28;20418;-45
2021/05/02 06:15:54;;;;;;;10.23;6.45;;;;;;;16.65;79.87;98778.56;3478081;28;20068;-45
2021/05/02 06:17:36;;;;;;;13.10;6.50;;;;;;;16.68;79.84;98779.34;3482360;28;20473;-45
2021/05/02 06:19:17;;;;;;;9.30;6.97;;;;;;;16.70;80.61;98764.44;3479111;28;20107;-46
2021/05/02 06:20:59;;;;;;;8.23;5.80;;;;;;;16.74;79.54;98765.22;3481147;28;20095;-45
2021/05/02 06:22:40;;;;;;;11.48;7.22;;;;;;;16.77;79.59;98769.56;3479653;28;20049;-45
2021/05/02 06:24:22;;;;;;;9.13;6.65;;;;;;;16.76;79.59;98775.69;3479104;28;20048;-45
2021/05/02 06:26:03;;;;;;;8.70;6.07;;;;;;;16.76;79.27;98767.81;3482289;28;20057;-45
2021/05/02 06:27:45;;;;;;;11.55;6.97;;;;;;;16.77;78.88;98759.94;3479168;28;20041;-45
2021/05/02 06:29:26;;;;;;;9.73;6.78;;;;;;;16.79;79.50;98766.00;3482394;28;20053;-46
2021/05/02 06:31:09;;;;;;;12.93;7.32;;;;;;;16.79;79.27;98773.84;3477414;28;20080;-46
2021/05/02 06:32:50;;;;;;;11.27;7.30;;;;;;;16.78;78.99;98773.91;3481462;28;20058;-45
2021/05/02 06:34:32;;;;;;;10.38;7.05;;;;;;;16.73;78.71;98774.00;3479417;28;20207;-46
2021/05/02 06:36:13;;;;;;;11.68;7.18;;;;;;;16.71;79.41;98763.53;3480576;28;20049;-45
2021/05/02 06:37:55;;;;;;;10.45;7.15;;;;;;;16.75;79.96;98771.38;3468711;28;20049;-47
2021/05/02 06:39:36;;;;;;;10.80;7.85;;;;;;;16.77;79.46;98778.28;3472824;28;20049;-47
2021/05/02 06:41:18;;;;;;;12.63;7.85;;;;;;;16.78;79.57;98764.28;3482497;28;20131;-45
2021/05/02 06:42:59;;;;;;;11.02;7.43;;;;;;;16.83;79.41;98769.38;3477703;28;20060;-45
2021/05/02 06:44:41;;;;;;;11.88;7.40;;;;;;;16.87;79.28;98781.53;3481258;28;20049;-46
2021/05/02 06:46:29;;;;;;;12.80;7.35;;;;;;;16.88;78.92;98783.22;3479943;28;20057;-46
2021/05/02 06:48:11;;;;;;;11.25;7.15;;;;;;;16.90;78.56;98792.78;3479228;28;20110;-45
2021/05/02 06:49:52;;;;;;;10.52;7.97;;;;;;;16.86;79.35;98798.13;3482527;28;20072;-45
2021/05/02 06:51:34;;;;;;;15.02;8.00;;;;;;;16.87;79.08;98802.47;3473709;28;20050;-46
2021/05/02 06:53:16;;;;;;;12.27;8.10;;;;;;;16.87;79.28;98813.81;3468025;28;20073;-46
2021/05/02 06:54:57;;;;;;;11.07;7.50;;;;;;;16.81;79.29;98815.72;3479561;28;20049;-47
2021/05/02 06:56:39;;;;;;;9.48;7.35;;;;;;;16.77;79.44;98837.66;3480167;28;20049;-46
2021/05/02 06:58:20;;;;;;;14.15;7.97;;;;;;;16.71;79.86;98842.13;3469080;28;20049;-45
2021/05/02 07:00:03;;;;;;;13.27;8.32;;;;;;;16.68;79.66;98836.94;3472096;28;20051;-46
2021/05/02 07:01:45;;;;;;;12.45;8.02;;;;;;;16.65;79.90;98813.47;3482261;28;20053;-45
2021/05/02 07:03:26;;;;;;;11.88;7.60;;;;;;;16.63;79.72;98810.00;3477478;28;20520;-47
2021/05/02 07:05:09;;;;;;;14.32;8.23;;;;;;;16.60;80.02;98807.50;3481553;28;20529;-50
2021/05/02 07:06:50;;;;;;;12.05;8.80;;;;;;;16.57;80.31;98814.56;3479771;28;20464;-48
2021/05/02 07:08:32;;;;;;;15.02;8.60;;;;;;;16.56;80.27;98821.53;3478862;28;20064;-49
2021/05/02 07:10:13;;;;;;;13.25;8.63;;;;;;;16.55;80.52;98817.22;3482091;28;20049;-49
2021/05/02 07:11:55;;;;;;;16.08;8.55;;;;;;;16.56;79.82;98813.69;3478485;28;20052;-49
2021/05/02 07:13:36;;;;;;;13.10;8.05;;;;;;;16.54;79.66;98823.34;3480772;28;20052;-46
2021/05/02 07:15:17;;;;;;;11.55;7.95;;;;;;;16.52;80.82;98812.03;3477876;28;20049;-45
2021/05/02 07:16:59;;;;;;;13.25;8.95;;;;;;;16.52;80.29;98815.50;3478892;28;20049;-47
2021/05/02 07:18:41;;;;;;;12.93;8.82;;;;;;;16.55;80.14;98810.22;3479553;28;20140;-46
2021/05/02 07:20:23;;;;;;;14.90;9.02;;;;;;;16.57;80.04;98814.56;3477618;28;20049;-46
2021/05/02 07:22:06;;;;;;;12.57;8.15;;;;;;;16.59;80.37;98815.38;3482388;28;20087;-45
2021/05/02 07:23:49;;;;;;;13.27;8.73;;;;;;;16.62;80.54;98815.28;3477963;28;20211;-46
2021/05/02 07:25:30;;;;;;;14.02;9.55;;;;;;;16.65;79.77;98809.97;3481814;28;20543;-48
2021/05/02 07:27:12;;;;;;;16.65;7.95;;;;;;;16.69;80.49;98814.25;3478786;28;20426;-47
2021/05/02 07:28:55;;;;;;;15.30;8.20;;;;;;;16.75;80.18;98808.88;3479103;28;20052;-48
2021/05/02 07:30:36;;;;;;;14.80;8.48;;;;;;;16.81;80.31;98806.13;3480665;28;20087;-48
2021/05/02 07:32:18;;;;;;;16.08;9.85;;;;;;;16.83;79.55;98788.59;3477071;28;20099;-48
2021/05/02 07:33:59;;;;;;;16.33;8.57;;;;;;;16.88;79.15;98791.09;3482097;28;20506;-46
2021/05/02 07:35:41;;;;;;;12.57;10.18;;;;;;;16.91;79.25;98796.25;3477754;28;20045;-47
2021/05/02 07:37:22;;;;;;;18.15;11.43;;;;;;;16.89;78.12;98804.16;3481663;28;20075;-48
2021/05/02 07:39:06;;;;;;;15.75;10.70;;;;;;;16.87;78.60;98795.47;3477965;28;20573;-47
2021/05/02 07:40:48;;;;;;;19.58;11.65;;;;;;;16.89;79.08;98798.06;3479469;28;20045;-46
2021/05/02 07:42:29;;;;;;;17.67;10.63;;;;;;;16.84;77.83;98802.56;3481293;28;20048;-48
2021/05/02 07:44:11;;;;;;;15.82;10.23;;;;;;;16.82;78.11;98805.22;3477212;28;20059;-48
2021/05/02 07:45:52;;;;;;;18.88;10.85;;;;;;;16.83;78.32;98796.47;3482281;28;20501;-48
2021/05/02 07:47:35;;;;;;;21.33;10.63;;;;;;;16.83;78.84;98795.56;3480807;28;20132;-48
2021/05/02 07:49:17;;;;;;;16.08;11.68;;;;;;;16.82;78.56;98804.34;3483128;28;20056;-48
2021/05/02 07:50:58;;;;;;;16.58;11.35;;;;;;;16.86;78.55;98804.22;3480413;28;20525;-49
2021/05/02 07:52:41;;;;;;;16.67;11.57;;;;;;;16.83;78.63;98812.19;3480688;28;20049;-46
2021/05/02 07:54:22;;;;;;;18.85;11.40;;;;;;;16.78;78.20;98806.19;3482532;28;20552;-48
2021/05/02 07:56:04;;;;;;;18.05;11.10;;;;;;;16.78;78.84;98797.50;3479150;28;20520;-48
2021/05/02 07:57:45;;;;;;;18.50;11.20;;;;;;;16.79;78.91;98793.94;3484161;28;20053;-51
2021/05/02 07:59:27;;;;;;;19.05;11.27;;;;;;;16.81;78.83;98787.78;3480662;28;20087;-48